createdAt,value
2023-05-21T00:00:46.712Z,94719.00
2023-05-21T00:01:46.730Z,94716.00
2023-05-21T00:02:46.827Z,94719.00
2023-05-21T00:03:46.905Z,94719.00
2023-05-21T00:04:48.360Z,94718.00
2023-05-21T00:05:46.862Z,94719.00
2023-05-21T00:06:47.751Z,94719.00
2023-05-21T00:07:46.680Z,94721.00
2023-05-21T00:08:47.244Z,94719.00
2023-05-21T00:09:46.647Z,94718.00
2023-05-21T00:10:46.656Z,94718.00
2023-05-21T00:11:46.677Z,94718.00
2023-05-21T00:12:46.664Z,94718.00
2023-05-21T00:13:46.633Z,94719.00
2023-05-21T00:14:46.625Z,94719.00
2023-05-21T00:15:47.269Z,94718.00
2023-05-21T00:16:46.662Z,94716.00
2023-05-21T00:17:46.650Z,94716.00
2023-05-21T00:18:46.627Z,94714.00
2023-05-21T00:19:46.605Z,94718.00
2023-05-21T00:20:46.578Z,94718.00
2023-05-21T00:21:46.589Z,94718.00
2023-05-21T00:22:46.586Z,94719.00
2023-05-21T00:23:46.543Z,94719.00
2023-05-21T00:24:46.579Z,94716.00
2023-05-21T00:25:46.567Z,94718.00
2023-05-21T00:26:46.549Z,94716.00
2023-05-21T00:27:46.539Z,94716.00
2023-05-21T00:28:46.539Z,94718.00
2023-05-21T00:29:46.534Z,94716.00
2023-05-21T00:30:46.786Z,94718.00
2023-05-21T00:31:47.310Z,94718.00
2023-05-21T00:32:46.530Z,94719.00
2023-05-21T00:33:46.586Z,94721.00
2023-05-21T00:34:46.545Z,94721.00
2023-05-21T00:35:46.790Z,94719.00
2023-05-21T00:36:46.611Z,94718.00
2023-05-21T00:37:46.585Z,94718.00
2023-05-21T00:38:46.653Z,94716.00
2023-05-21T00:39:46.632Z,94716.00
2023-05-21T00:40:46.759Z,94710.00
2023-05-21T00:41:46.700Z,94716.00
2023-05-21T00:42:46.716Z,94714.00
2023-05-21T00:43:46.732Z,94716.00
2023-05-21T00:44:46.763Z,94714.00
2023-05-21T00:45:46.926Z,94714.00
2023-05-21T00:46:46.804Z,94714.00
2023-05-21T00:47:46.881Z,94712.00
2023-05-21T00:48:46.869Z,94714.00
2023-05-21T00:49:46.899Z,94716.00
2023-05-21T00:50:46.890Z,94718.00
2023-05-21T00:51:46.942Z,94718.00
2023-05-21T00:52:46.944Z,94716.00
2023-05-21T00:53:46.990Z,94716.00
2023-05-21T00:54:46.995Z,94716.00
2023-05-21T00:55:47.016Z,94714.00
2023-05-21T00:56:47.795Z,94714.00
2023-05-21T00:57:47.065Z,94712.00
2023-05-21T00:58:47.122Z,94716.00
2023-05-21T00:59:47.110Z,94719.00
2023-05-21T01:00:47.155Z,94719.00
2023-05-21T01:01:47.192Z,94719.00
2023-05-21T01:02:47.280Z,94719.00
2023-05-21T01:03:47.466Z,94718.00
2023-05-21T01:04:47.239Z,94716.00
2023-05-21T01:05:47.242Z,94716.00
2023-05-21T01:06:47.320Z,94718.00
2023-05-21T01:07:47.300Z,94718.00
2023-05-21T01:08:47.293Z,94714.00
2023-05-21T01:09:47.332Z,94712.00
2023-05-21T01:10:47.348Z,94710.00
2023-05-21T01:11:47.446Z,94710.00
2023-05-21T01:12:47.452Z,94710.00
2023-05-21T01:13:47.443Z,94710.00
2023-05-21T01:14:47.479Z,94712.00
2023-05-21T01:15:47.777Z,94712.00
2023-05-21T01:16:47.516Z,94710.00
2023-05-21T01:17:47.576Z,94710.00
2023-05-21T01:18:47.720Z,94706.00
2023-05-21T01:19:47.652Z,94706.00
2023-05-21T01:20:47.582Z,94700.00
2023-05-21T01:21:47.636Z,94698.00
2023-05-21T01:22:47.634Z,94702.00
2023-05-21T01:23:47.629Z,94704.00
2023-05-21T01:24:47.751Z,94704.00
2023-05-21T01:25:47.730Z,94702.00
2023-05-21T01:26:47.732Z,94702.00
2023-05-21T01:27:48.268Z,94704.00
2023-05-21T01:28:47.739Z,94704.00
2023-05-21T01:29:47.784Z,94704.00
2023-05-21T01:30:47.806Z,94704.00
2023-05-21T01:31:47.838Z,94704.00
2023-05-21T01:32:47.922Z,94706.00
2023-05-21T01:33:47.937Z,94706.00
2023-05-21T01:34:47.901Z,94704.00
2023-05-21T01:35:47.913Z,94700.00
2023-05-21T01:36:48.002Z,94700.00
2023-05-21T01:37:48.014Z,94698.00
2023-05-21T01:38:48.033Z,94698.00
2023-05-21T01:39:48.062Z,94700.00
2023-05-21T01:40:48.140Z,94702.00
2023-05-21T01:41:48.132Z,94702.00
2023-05-21T01:42:48.102Z,94698.00
2023-05-21T01:43:48.123Z,94702.00
2023-05-21T01:44:48.197Z,94702.00
2023-05-21T01:45:48.193Z,94700.00
2023-05-21T01:46:48.266Z,94696.00
2023-05-21T01:47:48.248Z,94694.00
2023-05-21T01:48:48.272Z,94692.00
2023-05-21T01:49:48.293Z,94694.00
2023-05-21T01:50:49.283Z,94696.00
2023-05-21T01:51:48.377Z,94696.00
2023-05-21T01:52:48.384Z,94694.00
2023-05-21T01:53:48.429Z,94692.00
2023-05-21T01:54:48.433Z,94692.00
2023-05-21T01:55:48.455Z,94690.00
2023-05-21T01:56:48.469Z,94688.00
2023-05-21T01:57:48.484Z,94690.00
2023-05-21T01:58:48.550Z,94692.00
2023-05-21T01:59:48.581Z,94694.00
2023-05-21T02:00:48.597Z,94698.00
2023-05-21T02:01:48.663Z,94698.00
2023-05-21T02:02:48.710Z,94700.00
2023-05-21T02:03:48.737Z,94700.00
2023-05-21T02:04:48.685Z,94700.00
2023-05-21T02:05:48.722Z,94696.00
2023-05-21T02:06:48.741Z,94694.00
2023-05-21T02:07:48.764Z,94692.00
2023-05-21T02:08:48.848Z,94692.00
2023-05-21T02:09:48.842Z,94698.00
2023-05-21T02:10:49.338Z,94702.00
2023-05-21T02:11:48.866Z,94704.00
2023-05-21T02:12:48.880Z,94704.00
2023-05-21T02:13:48.906Z,94702.00
2023-05-21T02:14:48.915Z,94704.00
2023-05-21T02:15:48.978Z,94704.00
2023-05-21T02:16:48.980Z,94704.00
2023-05-21T02:17:48.999Z,94706.00
2023-05-21T02:18:49.086Z,94704.00
2023-05-21T02:19:49.077Z,94704.00
2023-05-21T02:20:49.187Z,94704.00
2023-05-21T02:21:49.111Z,94706.00
2023-05-21T02:22:49.106Z,94706.00
2023-05-21T02:23:49.174Z,94702.00
2023-05-21T02:24:49.166Z,94706.00
2023-05-21T02:25:49.327Z,94704.00
2023-05-21T02:26:49.200Z,94704.00
2023-05-21T02:27:49.232Z,94704.00
2023-05-21T02:28:49.293Z,94704.00
2023-05-21T02:29:49.295Z,94702.00
2023-05-21T02:30:49.823Z,94702.00
2023-05-21T02:31:49.375Z,94702.00
2023-05-21T02:32:49.406Z,94700.00
2023-05-21T02:33:49.435Z,94698.00
2023-05-21T02:34:49.481Z,94698.00
2023-05-21T02:35:49.488Z,94696.00
2023-05-21T02:36:49.499Z,94694.00
2023-05-21T02:37:49.513Z,94692.00
2023-05-21T02:38:49.547Z,94694.00
2023-05-21T02:39:49.576Z,94692.00
2023-05-21T02:40:49.627Z,94686.00
2023-05-21T02:41:49.645Z,94688.00
2023-05-21T02:42:49.686Z,94688.00
2023-05-21T02:43:49.709Z,94688.00
2023-05-21T02:44:50.689Z,94688.00
2023-05-21T02:45:49.714Z,94684.00
2023-05-21T02:46:49.690Z,94684.00
2023-05-21T02:47:49.726Z,94686.00
2023-05-21T02:48:49.684Z,94682.00
2023-05-21T02:49:49.664Z,94680.00
2023-05-21T02:50:49.653Z,94680.00
2023-05-21T02:51:49.636Z,94680.00
2023-05-21T02:52:49.637Z,94684.00
2023-05-21T02:53:49.621Z,94684.00
2023-05-21T02:54:49.627Z,94684.00
2023-05-21T02:55:49.632Z,94686.00
2023-05-21T02:56:49.627Z,94688.00
2023-05-21T02:57:49.618Z,94688.00
2023-05-21T02:58:49.587Z,94688.00
2023-05-21T02:59:49.556Z,94690.00
2023-05-21T03:00:49.616Z,94690.00
2023-05-21T03:01:49.753Z,94692.00
2023-05-21T03:02:49.798Z,94692.00
2023-05-21T03:03:49.756Z,94690.00
2023-05-21T03:04:49.746Z,94690.00
2023-05-21T03:05:49.723Z,94692.00
2023-05-21T03:06:49.769Z,94694.00
2023-05-21T03:07:49.801Z,94696.00
2023-05-21T03:08:49.831Z,94696.00
2023-05-21T03:09:49.871Z,94692.00
2023-05-21T03:10:50.330Z,94694.00
2023-05-21T03:11:49.913Z,94696.00
2023-05-21T03:12:49.957Z,94700.00
2023-05-21T03:13:50.027Z,94700.00
2023-05-21T03:14:49.982Z,94698.00
2023-05-21T03:15:50.340Z,94698.00
2023-05-21T03:16:50.075Z,94696.00
2023-05-21T03:17:50.139Z,94696.00
2023-05-21T03:18:50.139Z,94698.00
2023-05-21T03:19:50.098Z,94696.00
2023-05-21T03:20:50.378Z,94696.00
2023-05-21T03:21:50.126Z,94696.00
2023-05-21T03:22:50.193Z,94698.00
2023-05-21T03:23:50.170Z,94706.00
2023-05-21T03:24:50.284Z,94706.00
2023-05-21T03:25:50.259Z,94702.00
2023-05-21T03:26:50.281Z,94694.00
2023-05-21T03:27:50.276Z,94690.00
2023-05-21T03:28:50.343Z,94692.00
2023-05-21T03:29:50.363Z,94696.00
2023-05-21T03:30:50.839Z,94696.00
2023-05-21T03:31:50.426Z,94698.00
2023-05-21T03:32:50.459Z,94702.00
2023-05-21T03:33:50.450Z,94700.00
2023-05-21T03:34:50.475Z,94700.00
2023-05-21T03:35:50.538Z,94702.00
2023-05-21T03:36:50.533Z,94706.00
2023-05-21T03:37:50.569Z,94708.00
2023-05-21T03:38:50.632Z,94706.00
2023-05-21T03:39:50.612Z,94702.00
2023-05-21T03:40:50.653Z,94700.00
2023-05-21T03:41:50.681Z,94704.00
2023-05-21T03:42:50.713Z,94710.00
2023-05-21T03:43:50.718Z,94714.00
2023-05-21T03:44:50.759Z,94714.00
2023-05-21T03:45:50.965Z,94712.00
2023-05-21T03:46:50.837Z,94708.00
2023-05-21T03:47:50.868Z,94704.00
2023-05-21T03:48:50.842Z,94708.00
2023-05-21T03:49:50.889Z,94710.00
2023-05-21T03:50:51.344Z,94716.00
2023-05-21T03:51:50.943Z,94714.00
2023-05-21T03:52:50.970Z,94708.00
2023-05-21T03:53:50.973Z,94706.00
2023-05-21T03:54:51.024Z,94706.00
2023-05-21T03:55:51.369Z,94708.00
2023-05-21T03:56:51.665Z,94712.00
2023-05-21T03:57:51.110Z,94710.00
2023-05-21T03:58:51.145Z,94708.00
2023-05-21T03:59:51.139Z,94704.00
2023-05-21T04:00:51.196Z,94700.00
2023-05-21T04:01:51.192Z,94702.00
2023-05-21T04:02:51.261Z,94706.00
2023-05-21T04:03:51.400Z,94712.00
2023-05-21T04:04:51.416Z,94714.00
2023-05-21T04:05:51.297Z,94718.00
2023-05-21T04:06:51.293Z,94719.00
2023-05-21T04:07:51.330Z,94719.00
2023-05-21T04:08:51.339Z,94718.00
2023-05-21T04:09:51.380Z,94718.00
2023-05-21T04:10:51.832Z,94716.00
2023-05-21T04:11:51.393Z,94710.00
2023-05-21T04:12:51.439Z,94714.00
2023-05-21T04:13:51.486Z,94723.00
2023-05-21T04:14:51.509Z,94729.00
2023-05-21T04:15:51.875Z,94731.00
2023-05-21T04:16:51.524Z,94733.00
2023-05-21T04:17:51.554Z,94725.00
2023-05-21T04:18:51.637Z,94721.00
2023-05-21T04:19:51.609Z,94725.00
2023-05-21T04:20:51.862Z,94735.00
2023-05-21T04:21:51.652Z,94739.00
2023-05-21T04:22:51.668Z,94741.00
2023-05-21T04:23:51.664Z,94745.00
2023-05-21T04:24:51.706Z,94745.00
2023-05-21T04:25:51.871Z,94741.00
2023-05-21T04:26:51.752Z,94739.00
2023-05-21T04:27:51.769Z,94741.00
2023-05-21T04:28:51.810Z,94743.00
2023-05-21T04:29:51.812Z,94743.00
2023-05-21T04:30:51.900Z,94743.00
2023-05-21T04:31:51.938Z,94741.00
2023-05-21T04:32:51.950Z,94741.00
2023-05-21T04:33:51.923Z,94741.00
2023-05-21T04:34:51.931Z,94743.00
2023-05-21T04:35:52.391Z,94739.00
2023-05-21T04:36:51.993Z,94733.00
2023-05-21T04:37:52.014Z,94729.00
2023-05-21T04:38:52.061Z,94729.00
2023-05-21T04:39:52.125Z,94731.00
2023-05-21T04:40:52.414Z,94731.00
2023-05-21T04:41:52.121Z,94735.00
2023-05-21T04:42:52.151Z,94735.00
2023-05-21T04:43:52.164Z,94733.00
2023-05-21T04:44:52.217Z,94729.00
2023-05-21T04:45:52.255Z,94727.00
2023-05-21T04:46:52.259Z,94725.00
2023-05-21T04:47:52.354Z,94723.00
2023-05-21T04:48:52.308Z,94725.00
2023-05-21T04:49:52.341Z,94727.00
2023-05-21T04:50:52.388Z,94731.00
2023-05-21T04:51:52.386Z,94729.00
2023-05-21T04:52:52.420Z,94729.00
2023-05-21T04:53:52.416Z,94725.00
2023-05-21T04:54:52.437Z,94727.00
2023-05-21T04:55:52.880Z,94723.00
2023-05-21T04:56:52.518Z,94721.00
2023-05-21T04:57:52.550Z,94721.00
2023-05-21T04:58:52.570Z,94719.00
2023-05-21T04:59:52.571Z,94718.00
2023-05-21T05:00:52.908Z,94719.00
2023-05-21T05:01:52.637Z,94721.00
2023-05-21T05:02:52.729Z,94727.00
2023-05-21T05:03:52.788Z,94731.00
2023-05-21T05:04:52.689Z,94727.00
2023-05-21T05:05:52.872Z,94725.00
2023-05-21T05:06:52.747Z,94721.00
2023-05-21T05:07:52.767Z,94721.00
2023-05-21T05:08:52.781Z,94721.00
2023-05-21T05:09:52.813Z,94721.00
2023-05-21T05:10:53.376Z,94721.00
2023-05-21T05:11:52.856Z,94719.00
2023-05-21T05:12:52.866Z,94718.00
2023-05-21T05:13:52.879Z,94719.00
2023-05-21T05:14:52.965Z,94718.00
2023-05-21T05:15:54.678Z,94716.00
2023-05-21T05:16:53.035Z,94716.00
2023-05-21T05:17:52.997Z,94716.00
2023-05-21T05:18:53.082Z,94718.00
2023-05-21T05:19:53.027Z,94716.00
2023-05-21T05:20:53.438Z,94718.00
2023-05-21T05:21:53.099Z,94718.00
2023-05-21T05:22:53.089Z,94714.00
2023-05-21T05:23:53.144Z,94714.00
2023-05-21T05:24:53.155Z,94712.00
2023-05-21T05:25:53.204Z,94712.00
2023-05-21T05:26:53.206Z,94712.00
2023-05-21T05:27:53.220Z,94710.00
2023-05-21T05:28:53.315Z,94710.00
2023-05-21T05:29:53.261Z,94712.00
2023-05-21T05:30:53.394Z,94714.00
2023-05-21T05:31:53.265Z,94712.00
2023-05-21T05:32:53.347Z,94712.00
2023-05-21T05:33:53.303Z,94712.00
2023-05-21T05:34:53.370Z,94712.00
2023-05-21T05:35:53.381Z,94712.00
2023-05-21T05:36:53.403Z,94708.00
2023-05-21T05:37:53.400Z,94710.00
2023-05-21T05:38:53.456Z,94708.00
2023-05-21T05:39:53.459Z,94708.00
2023-05-21T05:40:53.904Z,94712.00
2023-05-21T05:41:53.500Z,94708.00
2023-05-21T05:42:53.527Z,94706.00
2023-05-21T05:43:53.544Z,94706.00
2023-05-21T05:44:53.597Z,94704.00
2023-05-21T05:45:53.916Z,94704.00
2023-05-21T05:46:53.622Z,94704.00
2023-05-21T05:47:53.670Z,94704.00
2023-05-21T05:48:53.643Z,94702.00
2023-05-21T05:49:53.684Z,94706.00
2023-05-21T05:50:53.891Z,94706.00
2023-05-21T05:51:53.778Z,94710.00
2023-05-21T05:52:53.740Z,94710.00
2023-05-21T05:53:53.769Z,94708.00
2023-05-21T05:54:53.774Z,94706.00
2023-05-21T05:55:53.819Z,94706.00
2023-05-21T05:56:53.833Z,94706.00
2023-05-21T05:57:53.860Z,94706.00
2023-05-21T05:58:53.880Z,94706.00
2023-05-21T05:59:53.922Z,94714.00
2023-05-21T06:00:54.382Z,94710.00
2023-05-21T06:01:53.952Z,94714.00
2023-05-21T06:02:54.060Z,94708.00
2023-05-21T06:03:54.056Z,94712.00
2023-05-21T06:04:54.031Z,94706.00
2023-05-21T06:05:54.409Z,94714.00
2023-05-21T06:06:54.112Z,94714.00
2023-05-21T06:07:54.092Z,94714.00
2023-05-21T06:08:54.126Z,94712.00
2023-05-21T06:09:54.136Z,94714.00
2023-05-21T06:10:54.372Z,94716.00
2023-05-21T06:11:54.192Z,94714.00
2023-05-21T06:12:54.223Z,94712.00
2023-05-21T06:13:54.242Z,94710.00
2023-05-21T06:14:54.219Z,94708.00
2023-05-21T06:15:54.417Z,94706.00
2023-05-21T06:16:54.347Z,94704.00
2023-05-21T06:17:54.439Z,94706.00
2023-05-21T06:18:54.347Z,94706.00
2023-05-21T06:19:54.324Z,94706.00
2023-05-21T06:20:54.375Z,94706.00
2023-05-21T06:21:54.335Z,94704.00
2023-05-21T06:22:54.396Z,94702.00
2023-05-21T06:23:54.413Z,94700.00
2023-05-21T06:24:54.445Z,94696.00
2023-05-21T06:25:55.409Z,94694.00
2023-05-21T06:26:54.447Z,94690.00
2023-05-21T06:27:54.464Z,94692.00
2023-05-21T06:28:54.477Z,94692.00
2023-05-21T06:29:54.511Z,94692.00
2023-05-21T06:30:54.900Z,94694.00
2023-05-21T06:31:54.561Z,94692.00
2023-05-21T06:32:54.631Z,94692.00
2023-05-21T06:33:54.779Z,94692.00
2023-05-21T06:34:54.612Z,94686.00
2023-05-21T06:35:54.883Z,94684.00
2023-05-21T06:36:54.625Z,94684.00
2023-05-21T06:37:54.673Z,94682.00
2023-05-21T06:38:54.674Z,94680.00
2023-05-21T06:39:54.708Z,94684.00
2023-05-21T06:40:54.895Z,94682.00
2023-05-21T06:41:54.714Z,94682.00
2023-05-21T06:42:54.746Z,94682.00
2023-05-21T06:43:54.760Z,94684.00
2023-05-21T06:44:54.781Z,94682.00
2023-05-21T06:45:54.917Z,94680.00
2023-05-21T06:46:54.819Z,94682.00
2023-05-21T06:47:54.902Z,94680.00
2023-05-21T06:48:54.832Z,94682.00
2023-05-21T06:49:54.877Z,94682.00
2023-05-21T06:50:54.892Z,94684.00
2023-05-21T06:51:54.905Z,94686.00
2023-05-21T06:52:54.903Z,94688.00
2023-05-21T06:53:54.931Z,94682.00
2023-05-21T06:54:54.951Z,94684.00
2023-05-21T06:55:55.902Z,94686.00
2023-05-21T06:56:55.018Z,94686.00
2023-05-21T06:57:55.016Z,94688.00
2023-05-21T06:58:55.032Z,94690.00
2023-05-21T06:59:55.046Z,94690.00
2023-05-21T07:00:55.433Z,94692.00
2023-05-21T07:01:55.170Z,94694.00
2023-05-21T07:02:55.150Z,94692.00
2023-05-21T07:03:55.128Z,94694.00
2023-05-21T07:04:55.103Z,94690.00
2023-05-21T07:05:55.150Z,94692.00
2023-05-21T07:06:55.142Z,94688.00
2023-05-21T07:07:55.166Z,94688.00
2023-05-21T07:08:55.149Z,94688.00
2023-05-21T07:09:55.217Z,94686.00
2023-05-21T07:10:55.228Z,94684.00
2023-05-21T07:11:55.213Z,94684.00
2023-05-21T07:12:55.286Z,94682.00
2023-05-21T07:13:55.258Z,94680.00
2023-05-21T07:14:56.459Z,94678.00
2023-05-21T07:15:55.422Z,94678.00
2023-05-21T07:16:55.339Z,94678.00
2023-05-21T07:17:55.356Z,94678.00
2023-05-21T07:18:55.374Z,94676.00
2023-05-21T07:19:55.329Z,94678.00
2023-05-21T07:20:55.401Z,94674.00
2023-05-21T07:21:55.373Z,94678.00
2023-05-21T07:22:55.395Z,94672.00
2023-05-21T07:23:55.400Z,94669.00
2023-05-21T07:24:55.408Z,94669.00
2023-05-21T07:25:55.896Z,94665.00
2023-05-21T07:26:55.435Z,94661.00
2023-05-21T07:27:55.465Z,94663.00
2023-05-21T07:28:55.464Z,94657.00
2023-05-21T07:29:55.473Z,94657.00
2023-05-21T07:30:56.014Z,94653.00
2023-05-21T07:31:55.542Z,94651.00
2023-05-21T07:32:55.574Z,94649.00
2023-05-21T07:33:55.529Z,94649.00
2023-05-21T07:34:55.549Z,94651.00
2023-05-21T07:35:55.920Z,94651.00
2023-05-21T07:36:55.569Z,94651.00
2023-05-21T07:37:55.635Z,94655.00
2023-05-21T07:38:55.606Z,94649.00
2023-05-21T07:39:55.597Z,94647.00
2023-05-21T07:40:55.941Z,94645.00
2023-05-21T07:41:55.643Z,94643.00
2023-05-21T07:42:55.629Z,94641.00
2023-05-21T07:43:55.674Z,94639.00
2023-05-21T07:44:55.682Z,94637.00
2023-05-21T07:45:55.682Z,94637.00
2023-05-21T07:46:55.685Z,94639.00
2023-05-21T07:47:55.741Z,94643.00
2023-05-21T07:48:55.671Z,94643.00
2023-05-21T07:49:55.721Z,94645.00
2023-05-21T07:50:55.716Z,94645.00
2023-05-21T07:51:55.719Z,94645.00
2023-05-21T07:52:55.756Z,94643.00
2023-05-21T07:53:55.743Z,94639.00
2023-05-21T07:54:55.714Z,94637.00
2023-05-21T07:55:55.728Z,94624.00
2023-05-21T07:56:55.735Z,94624.00
2023-05-21T07:57:55.742Z,94622.00
2023-05-21T07:58:55.770Z,94626.00
2023-05-21T07:59:55.784Z,94622.00
2023-05-21T08:00:55.772Z,94624.00
2023-05-21T08:01:55.771Z,94622.00
2023-05-21T08:02:55.864Z,94622.00
2023-05-21T08:03:55.874Z,94622.00
2023-05-21T08:04:55.793Z,94624.00
2023-05-21T08:05:55.787Z,94624.00
2023-05-21T08:06:55.807Z,94624.00
2023-05-21T08:07:55.842Z,94622.00
2023-05-21T08:08:55.835Z,94620.00
2023-05-21T08:09:55.838Z,94618.00
2023-05-21T08:10:55.852Z,94620.00
2023-05-21T08:11:55.848Z,94616.00
2023-05-21T08:12:55.820Z,94616.00
2023-05-21T08:13:55.817Z,94618.00
2023-05-21T08:14:55.834Z,94620.00
2023-05-21T08:15:55.865Z,94618.00
2023-05-21T08:16:55.880Z,94618.00
2023-05-21T08:17:55.899Z,94618.00
2023-05-21T08:18:55.915Z,94616.00
2023-05-21T08:19:55.892Z,94614.00
2023-05-21T08:20:55.939Z,94614.00
2023-05-21T08:21:55.876Z,94618.00
2023-05-21T08:22:55.889Z,94614.00
2023-05-21T08:23:55.845Z,94612.00
2023-05-21T08:24:55.869Z,94618.00
2023-05-21T08:25:55.859Z,94616.00
2023-05-21T08:26:55.882Z,94612.00
2023-05-21T08:27:55.932Z,94612.00
2023-05-21T08:28:55.876Z,94610.00
2023-05-21T08:29:55.877Z,94610.00
2023-05-21T08:30:55.897Z,94606.00
2023-05-21T08:31:55.914Z,94606.00
2023-05-21T08:32:55.944Z,94604.00
2023-05-21T08:33:55.909Z,94604.00
2023-05-21T08:34:55.884Z,94598.00
2023-05-21T08:35:55.898Z,94598.00
2023-05-21T08:36:55.859Z,94598.00
2023-05-21T08:37:55.866Z,94596.00
2023-05-21T08:38:55.865Z,94598.00
2023-05-21T08:39:55.894Z,94594.00
2023-05-21T08:40:55.973Z,94598.00
2023-05-21T08:41:55.891Z,94592.00
2023-05-21T08:42:55.897Z,94588.00
2023-05-21T08:43:55.892Z,94592.00
2023-05-21T08:44:55.901Z,94590.00
2023-05-21T08:45:55.937Z,94588.00
2023-05-21T08:46:55.894Z,94588.00
2023-05-21T08:47:55.985Z,94588.00
2023-05-21T08:48:55.880Z,94592.00
2023-05-21T08:49:55.871Z,94592.00
2023-05-21T08:50:55.915Z,94590.00
2023-05-21T08:51:55.894Z,94588.00
2023-05-21T08:52:55.884Z,94588.00
2023-05-21T08:53:55.919Z,94588.00
2023-05-21T08:54:55.873Z,94582.00
2023-05-21T08:55:55.957Z,94582.00
2023-05-21T08:56:56.529Z,94580.00
2023-05-21T08:57:55.898Z,94580.00
2023-05-21T08:58:55.904Z,94582.00
2023-05-21T08:59:55.889Z,94584.00
2023-05-21T09:00:55.927Z,94582.00
2023-05-21T09:01:55.973Z,94580.00
2023-05-21T09:02:56.011Z,94582.00
2023-05-21T09:04:04.812Z,94576.00
2023-05-21T09:04:56.905Z,94578.00
2023-05-21T09:05:55.871Z,94574.00
2023-05-21T09:06:55.899Z,94574.00
2023-05-21T09:07:55.861Z,94574.00
2023-05-21T09:08:55.868Z,94572.00
2023-05-21T09:09:55.859Z,94572.00
2023-05-21T09:10:55.841Z,94572.00
2023-05-21T09:11:55.827Z,94571.00
2023-05-21T09:12:55.833Z,94572.00
2023-05-21T09:13:55.834Z,94576.00
2023-05-21T09:14:55.820Z,94580.00
2023-05-21T09:15:55.824Z,94580.00
2023-05-21T09:16:55.863Z,94580.00
2023-05-21T09:17:55.823Z,94576.00
2023-05-21T09:18:55.802Z,94576.00
2023-05-21T09:19:55.772Z,94576.00
2023-05-21T09:20:55.929Z,94576.00
2023-05-21T09:21:55.791Z,94576.00
2023-05-21T09:22:55.776Z,94582.00
2023-05-21T09:23:55.749Z,94582.00
2023-05-21T09:24:55.750Z,94584.00
2023-05-21T09:25:55.749Z,94580.00
2023-05-21T09:26:55.729Z,94586.00
2023-05-21T09:27:55.741Z,94588.00
2023-05-21T09:28:55.738Z,94586.00
2023-05-21T09:29:55.704Z,94588.00
2023-05-21T09:30:55.790Z,94580.00
2023-05-21T09:31:55.783Z,94588.00
2023-05-21T09:32:55.709Z,94584.00
2023-05-21T09:33:55.754Z,94586.00
2023-05-21T09:34:55.697Z,94592.00
2023-05-21T09:35:55.657Z,94586.00
2023-05-21T09:36:55.652Z,94592.00
2023-05-21T09:37:55.664Z,94592.00
2023-05-21T09:38:55.632Z,94590.00
2023-05-21T09:39:55.619Z,94584.00
2023-05-21T09:40:55.955Z,94586.00
2023-05-21T09:41:55.591Z,94586.00
2023-05-21T09:42:55.616Z,94592.00
2023-05-21T09:43:55.596Z,94594.00
2023-05-21T09:44:55.601Z,94594.00
2023-05-21T09:45:55.795Z,94588.00
2023-05-21T09:46:55.771Z,94592.00
2023-05-21T09:47:55.618Z,94592.00
2023-05-21T09:48:55.535Z,94590.00
2023-05-21T09:49:55.601Z,94594.00
2023-05-21T09:50:55.559Z,94590.00
2023-05-21T09:51:55.530Z,94588.00
2023-05-21T09:52:55.580Z,94592.00
2023-05-21T09:53:55.543Z,94584.00
2023-05-21T09:54:55.507Z,94590.00
2023-05-21T09:55:55.516Z,94586.00
2023-05-21T09:56:55.519Z,94586.00
2023-05-21T09:57:55.477Z,94590.00
2023-05-21T09:58:55.483Z,94586.00
2023-05-21T09:59:55.466Z,94586.00
2023-05-21T10:00:55.487Z,94586.00
2023-05-21T10:01:55.569Z,94588.00
2023-05-21T10:02:55.526Z,94594.00
2023-05-21T10:03:55.449Z,94592.00
2023-05-21T10:04:55.446Z,94590.00
2023-05-21T10:05:55.436Z,94592.00
2023-05-21T10:06:55.417Z,94590.00
2023-05-21T10:07:55.449Z,94590.00
2023-05-21T10:08:55.418Z,94594.00
2023-05-21T10:09:55.407Z,94588.00
2023-05-21T10:10:55.386Z,94588.00
2023-05-21T10:11:55.382Z,94586.00
2023-05-21T10:12:55.405Z,94592.00
2023-05-21T10:13:55.387Z,94588.00
2023-05-21T10:14:55.367Z,94592.00
2023-05-21T10:15:55.534Z,94590.00
2023-05-21T10:16:55.350Z,94588.00
2023-05-21T10:17:55.385Z,94588.00
2023-05-21T10:18:55.447Z,94586.00
2023-05-21T10:19:55.347Z,94588.00
2023-05-21T10:20:55.439Z,94590.00
2023-05-21T10:21:55.340Z,94586.00
2023-05-21T10:22:55.297Z,94586.00
2023-05-21T10:23:55.305Z,94584.00
2023-05-21T10:24:55.325Z,94582.00
2023-05-21T10:25:55.319Z,94582.00
2023-05-21T10:26:55.304Z,94582.00
2023-05-21T10:27:55.285Z,94578.00
2023-05-21T10:28:55.309Z,94580.00
2023-05-21T10:29:55.273Z,94580.00
2023-05-21T10:30:55.268Z,94574.00
2023-05-21T10:31:55.347Z,94574.00
2023-05-21T10:32:55.400Z,94571.00
2023-05-21T10:33:55.269Z,94571.00
2023-05-21T10:34:55.240Z,94569.00
2023-05-21T10:35:55.455Z,94572.00
2023-05-21T10:36:55.221Z,94569.00
2023-05-21T10:37:55.210Z,94565.00
2023-05-21T10:38:55.252Z,94571.00
2023-05-21T10:39:55.171Z,94567.00
2023-05-21T10:40:55.469Z,94565.00
2023-05-21T10:41:57.694Z,94563.00
2023-05-21T10:42:55.201Z,94561.00
2023-05-21T10:43:55.201Z,94559.00
2023-05-21T10:44:55.209Z,94559.00
2023-05-21T10:45:55.472Z,94561.00
2023-05-21T10:46:55.149Z,94555.00
2023-05-21T10:47:55.206Z,94557.00
2023-05-21T10:48:55.187Z,94557.00
2023-05-21T10:49:55.188Z,94557.00
2023-05-21T10:50:55.136Z,94551.00
2023-05-21T10:51:55.106Z,94555.00
2023-05-21T10:52:55.146Z,94551.00
2023-05-21T10:53:55.132Z,94551.00
2023-05-21T10:54:55.105Z,94551.00
2023-05-21T10:55:55.116Z,94553.00
2023-05-21T10:56:55.138Z,94551.00
2023-05-21T10:57:55.089Z,94545.00
2023-05-21T10:58:55.072Z,94547.00
2023-05-21T10:59:55.084Z,94551.00
2023-05-21T11:00:55.513Z,94549.00
2023-05-21T11:01:55.054Z,94549.00
2023-05-21T11:02:55.296Z,94547.00
2023-05-21T11:03:55.150Z,94547.00
2023-05-21T11:04:55.057Z,94543.00
2023-05-21T11:05:55.046Z,94539.00
2023-05-21T11:06:55.058Z,94539.00
2023-05-21T11:07:55.035Z,94537.00
2023-05-21T11:08:55.712Z,94541.00
2023-05-21T11:09:55.013Z,94547.00
2023-05-21T11:10:55.013Z,94545.00
2023-05-21T11:11:54.992Z,94541.00
2023-05-21T11:12:54.988Z,94543.00
2023-05-21T11:13:54.963Z,94543.00
2023-05-21T11:14:55.001Z,94547.00
2023-05-21T11:15:55.000Z,94545.00
2023-05-21T11:16:55.010Z,94543.00
2023-05-21T11:17:55.068Z,94541.00
2023-05-21T11:18:55.022Z,94541.00
2023-05-21T11:19:54.939Z,94539.00
2023-05-21T11:20:54.949Z,94543.00
2023-05-21T11:21:54.930Z,94543.00
2023-05-21T11:22:54.938Z,94549.00
2023-05-21T11:23:54.902Z,94541.00
2023-05-21T11:24:54.911Z,94543.00
2023-05-21T11:25:54.893Z,94541.00
2023-05-21T11:26:54.883Z,94537.00
2023-05-21T11:27:54.915Z,94539.00
2023-05-21T11:28:54.903Z,94539.00
2023-05-21T11:29:54.864Z,94537.00
2023-05-21T11:30:54.875Z,94539.00
2023-05-21T11:31:54.856Z,94541.00
2023-05-21T11:32:54.906Z,94539.00
2023-05-21T11:33:54.893Z,94537.00
2023-05-21T11:34:54.856Z,94535.00
2023-05-21T11:35:54.844Z,94537.00
2023-05-21T11:36:54.839Z,94535.00
2023-05-21T11:37:54.808Z,94535.00
2023-05-21T11:38:54.819Z,94533.00
2023-05-21T11:39:54.845Z,94535.00
2023-05-21T11:40:54.953Z,94531.00
2023-05-21T11:41:54.784Z,94535.00
2023-05-21T11:42:54.772Z,94535.00
2023-05-21T11:43:54.787Z,94529.00
2023-05-21T11:44:54.754Z,94535.00